Time;durP1;ratioP1;P1;durP2;ratioP2;P2;SDS_P1;SDS_P2;PMS_P1;PMS_P2;Temp;Humidity;BMP_temperature;BMP_pressure;BME280_temperature;BME280_humidity;BME280_pressure;Samples;Min_cycle;Max_cycle;Signal;HPM_P1;HPM_P2
2022/10/22 00:00:30;;;;;;;51.13;31.65;;;;;;;1.15;70.19;101084.87;1783069;79;22239;-73
2022/10/22 00:02:57;;;;;;;50.67;32.05;;;;;;;1.13;70.12;101087.98;1786858;78;20964;-73
2022/10/22 00:05:23;;;;;;;49.35;31.30;;;;;;;1.11;70.13;101081.97;1802267;78;20977;-73
2022/10/22 00:07:50;;;;;;;46.73;29.48;;;;;;;1.12;70.22;101078.02;1791023;78;21020;-73
2022/10/22 00:10:17;;;;;;;45.65;30.57;;;;;;;1.14;70.26;101079.27;1783357;78;21354;-73
2022/10/22 00:12:44;;;;;;;48.02;29.85;;;;;;;1.15;70.33;101078.38;1748581;80;21939;-73
2022/10/22 00:15:11;;;;;;;47.62;29.50;;;;;;;1.14;70.32;101067.56;1727835;79;21029;-74
2022/10/22 00:17:37;;;;;;;42.08;26.93;;;;;;;1.12;70.30;101071.52;1738366;80;21437;-73
2022/10/22 00:20:06;;;;;;;42.10;27.27;;;;;;;1.10;70.40;101065.96;1758702;79;20960;-73
2022/10/22 00:22:33;;;;;;;42.65;27.52;;;;;;;1.10;70.52;101067.27;1765976;79;21060;-73
2022/10/22 00:25:00;;;;;;;39.58;25.50;;;;;;;1.10;70.58;101062.91;1758460;81;22231;-73
2022/10/22 00:27:26;;;;;;;38.23;25.05;;;;;;;1.09;70.50;101059.91;1724848;79;21086;-73
2022/10/22 00:29:53;;;;;;;40.00;25.60;;;;;;;1.06;70.49;101062.61;1789164;79;20993;-73
2022/10/22 00:32:20;;;;;;;36.15;23.35;;;;;;;1.08;70.57;101059.95;1787469;79;21004;-74
2022/10/22 00:34:46;;;;;;;33.30;21.33;;;;;;;1.08;70.62;101058.20;1794109;79;20985;-73
2022/10/22 00:37:13;;;;;;;32.05;20.80;;;;;;;1.09;70.78;101056.01;1784537;79;21968;-73
2022/10/22 00:39:40;;;;;;;34.53;22.52;;;;;;;1.14;71.00;101057.16;1797298;79;20977;-73
2022/10/22 00:42:06;;;;;;;39.88;23.55;;;;;;;1.17;71.06;101048.44;1777901;79;20949;-73
2022/10/22 00:45:07;;;;;;;35.20;23.12;;;;;;;1.16;70.98;101046.28;1768239;79;21075;-73
2022/10/22 00:47:49;;;;;;;35.28;22.35;;;;;;;1.15;70.89;101048.45;1742392;81;21047;-73
2022/10/22 00:50:36;;;;;;;37.65;21.97;;;;;;;1.11;70.88;101035.14;1730661;80;21850;-73
2022/10/22 00:53:06;;;;;;;31.75;21.87;;;;;;;1.10;70.94;101036.05;1678083;83;21539;-73
2022/10/22 00:55:32;;;;;;;33.40;21.75;;;;;;;1.10;70.98;101025.64;1719890;80;21026;-73
2022/10/22 00:57:58;;;;;;;31.97;21.02;;;;;;;1.08;71.10;101023.09;1734103;80;21079;-73
2022/10/22 01:00:25;;;;;;;31.30;21.15;;;;;;;1.09;71.21;101023.48;1716222;82;21110;-72
2022/10/22 01:02:54;;;;;;;31.23;20.65;;;;;;;1.10;71.16;101024.34;1733982;80;22487;-72
2022/10/22 01:05:20;;;;;;;28.65;19.85;;;;;;;1.08;71.20;101022.23;1707627;82;21341;-72
2022/10/22 01:07:51;;;;;;;30.55;20.48;;;;;;;1.09;71.25;101018.28;1794978;79;20993;-74
2022/10/22 01:10:26;;;;;;;31.12;20.82;;;;;;;1.11;71.30;101016.48;1759027;79;20979;-73
2022/10/22 01:13:14;;;;;;;30.68;20.52;;;;;;;1.12;71.27;101014.28;1796750;79;21068;-72
2022/10/22 01:16:06;;;;;;;28.55;18.73;;;;;;;1.12;71.32;101010.83;1792765;79;21032;-73
2022/10/22 01:18:50;;;;;;;27.95;19.55;;;;;;;1.12;71.43;101016.03;1796050;79;21080;-72
2022/10/22 01:21:33;;;;;;;26.65;19.50;;;;;;;1.11;71.51;101009.98;1779695;79;20966;-73
2022/10/22 01:24:24;;;;;;;26.33;18.25;;;;;;;1.14;71.58;101009.87;1772939;79;20956;-72
2022/10/22 01:27:16;;;;;;;27.98;18.40;;;;;;;1.20;71.63;101010.60;1786711;79;21014;-72
2022/10/22 01:29:50;;;;;;;24.23;17.27;;;;;;;1.21;71.70;101013.15;1790117;79;21440;-73
2022/10/22 01:32:20;;;;;;;27.62;18.15;;;;;;;1.24;71.74;101016.95;1784253;79;21047;-72
2022/10/22 01:34:52;;;;;;;31.12;18.52;;;;;;;1.28;71.81;101019.03;1781794;79;21010;-73
2022/10/22 01:37:19;;;;;;;27.10;18.92;;;;;;;1.31;71.80;101015.02;1797076;79;20989;-73
2022/10/22 01:39:45;;;;;;;26.35;18.52;;;;;;;1.33;71.82;101020.57;1784166;79;20996;-72
2022/10/22 01:42:13;;;;;;;26.50;18.60;;;;;;;1.33;71.81;101019.27;1797418;79;21891;-72
2022/10/22 01:44:40;;;;;;;28.17;19.23;;;;;;;1.34;71.86;101013.61;1793620;79;21174;-72
2022/10/22 01:47:31;;;;;;;26.30;18.37;;;;;;;1.35;71.88;101015.31;1788376;79;21093;-72
2022/10/22 01:50:27;;;;;;;27.67;19.25;;;;;;;1.34;71.86;101007.95;1782547;79;21052;-72
2022/10/22 01:53:34;;;;;;;26.15;18.35;;;;;;;1.35;71.91;101015.31;1777069;79;20981;-72
2022/10/22 01:56:32;;;;;;;26.02;18.20;;;;;;;1.34;71.88;101011.86;1757327;79;22669;-72
2022/10/22 01:59:19;;;;;;;30.40;19.35;;;;;;;1.33;71.92;101006.71;1779898;79;20949;-72
2022/10/22 02:02:13;;;;;;;29.20;19.42;;;;;;;1.33;71.94;101008.01;1772389;79;21414;-72
2022/10/22 02:04:49;;;;;;;29.85;18.92;;;;;;;1.32;71.94;101010.22;1776002;79;20918;-74
2022/10/22 02:07:19;;;;;;;25.77;18.67;;;;;;;1.32;71.99;101004.56;1784243;79;21075;-73
2022/10/22 02:09:47;;;;;;;27.52;18.20;;;;;;;1.33;72.03;101004.11;1772665;79;21917;-73
2022/10/22 02:12:14;;;;;;;29.00;18.35;;;;;;;1.33;72.01;101000.20;1765709;81;21005;-74
2022/10/22 02:14:42;;;;;;;28.38;18.25;;;;;;;1.34;72.04;100991.49;1765814;81;21001;-76
2022/10/22 02:17:12;;;;;;;25.77;17.87;;;;;;;1.35;72.06;100997.98;1758131;80;20965;-73
2022/10/22 02:19:45;;;;;;;25.15;17.87;;;;;;;1.37;72.06;100995.32;1737426;80;21002;-73
2022/10/22 02:22:12;;;;;;;27.58;17.40;;;;;;;1.37;72.05;100996.17;1727978;81;22262;-73
2022/10/22 02:24:38;;;;;;;24.55;17.05;;;;;;;1.38;72.06;100986.16;1749688;80;20998;-73
2022/10/22 02:27:23;;;;;;;24.60;16.20;;;;;;;1.39;72.07;100984.41;1752856;79;20966;-73
2022/10/22 02:30:04;;;;;;;26.40;16.37;;;;;;;1.39;72.10;100977.90;1739935;79;21072;-73
2022/10/22 02:32:51;;;;;;;23.47;16.37;;;;;;;1.42;72.18;100984.30;1797246;79;21530;-73
2022/10/22 02:35:22;;;;;;;22.55;16.20;;;;;;;1.44;72.21;100980.73;1788171;79;39913;-73
2022/10/22 02:37:49;;;;;;;24.92;16.73;;;;;;;1.48;72.25;100985.41;1793706;79;20977;-73
2022/10/22 02:40:16;;;;;;;24.75;16.00;;;;;;;1.51;72.21;100976.20;1788398;79;21123;-73
2022/10/22 02:42:43;;;;;;;23.55;15.90;;;;;;;1.55;72.19;100981.72;1781522;79;21084;-73
2022/10/22 02:45:09;;;;;;;25.30;15.78;;;;;;;1.58;72.15;100984.66;1793601;79;21540;-73
2022/10/22 02:47:36;;;;;;;20.17;14.18;;;;;;;1.61;72.09;100984.11;1789064;79;22405;-73
2022/10/22 02:50:03;;;;;;;21.20;14.30;;;;;;;1.63;72.03;100993.16;1788512;79;21064;-73
2022/10/22 02:52:31;;;;;;;21.42;14.07;;;;;;;1.62;71.97;100990.16;1788648;79;21001;-73
2022/10/22 02:54:57;;;;;;;23.50;15.08;;;;;;;1.60;71.99;100988.91;1788515;79;20992;-73
2022/10/22 02:57:24;;;;;;;24.15;14.90;;;;;;;1.61;72.01;100993.67;1788639;79;20973;-73
2022/10/22 02:59:51;;;;;;;22.27;14.10;;;;;;;1.59;71.97;100982.01;1774949;79;21508;-73
2022/10/22 03:02:18;;;;;;;20.10;12.82;;;;;;;1.60;71.97;100980.25;1779703;79;20857;-73
2022/10/22 03:04:44;;;;;;;19.42;13.43;;;;;;;1.60;71.96;100980.25;1772364;79;21023;-73
2022/10/22 03:07:11;;;;;;;20.05;12.75;;;;;;;1.61;71.91;100981.50;1766805;80;21067;-73
2022/10/22 03:09:38;;;;;;;24.00;14.15;;;;;;;1.62;71.83;100978.45;1774526;79;21486;-73
2022/10/22 03:12:05;;;;;;;18.30;12.23;;;;;;;1.61;71.79;100981.50;1771242;79;22480;-73
2022/10/22 03:14:32;;;;;;;20.92;14.00;;;;;;;1.62;71.78;100979.75;1782865;79;20955;-73
2022/10/22 03:16:58;;;;;;;18.00;12.98;;;;;;;1.61;71.70;100976.30;1769754;79;21001;-73
2022/10/22 03:19:24;;;;;;;19.07;12.70;;;;;;;1.61;71.71;100977.59;1756185;80;21056;-72
2022/10/22 03:22:02;;;;;;;19.95;12.93;;;;;;;1.62;71.71;100978.45;1749229;79;21034;-73
2022/10/22 03:24:36;;;;;;;20.90;13.22;;;;;;;1.63;71.67;100978.84;1762848;81;21992;-73
2022/10/22 03:27:05;;;;;;;17.82;12.43;;;;;;;1.62;71.61;100980.59;1722995;82;21030;-73
2022/10/22 03:29:33;;;;;;;19.62;13.30;;;;;;;1.64;71.55;100981.42;1713258;82;21066;-73
2022/10/22 03:32:01;;;;;;;19.15;11.55;;;;;;;1.64;71.53;100972.73;1723353;80;20991;-73
2022/10/22 03:34:28;;;;;;;19.67;12.73;;;;;;;1.64;71.54;100973.61;1709083;83;20963;-73
2022/10/22 03:36:56;;;;;;;18.02;12.10;;;;;;;1.63;71.52;100971.88;1731710;81;21942;-74
2022/10/22 03:39:23;;;;;;;17.12;11.70;;;;;;;1.63;71.52;100963.22;1736342;82;21025;-73
2022/10/22 03:41:51;;;;;;;17.30;12.03;;;;;;;1.63;71.53;100957.56;1716333;82;21029;-73
2022/10/22 03:44:18;;;;;;;16.97;11.10;;;;;;;1.64;71.57;100955.39;1774393;79;20981;-73
2022/10/22 03:46:46;;;;;;;18.87;12.10;;;;;;;1.64;71.57;100957.11;1783912;79;21057;-73
2022/10/22 03:49:12;;;;;;;15.88;11.78;;;;;;;1.64;71.54;100953.20;1792992;79;22533;-73
2022/10/22 03:51:40;;;;;;;19.95;12.58;;;;;;;1.63;71.61;100952.34;1774116;79;21050;-73
2022/10/22 03:54:07;;;;;;;19.57;12.05;;;;;;;1.64;71.57;100947.57;1771729;79;20945;-73
2022/10/22 03:56:34;;;;;;;15.08;10.80;;;;;;;1.66;71.55;100947.52;1797326;79;20969;-74
2022/10/22 03:59:01;;;;;;;17.48;12.88;;;;;;;1.65;71.47;100958.84;1763562;79;21110;-73
2022/10/22 04:01:28;;;;;;;18.87;13.13;;;;;;;1.62;71.48;100959.77;1784260;79;21876;-73
2022/10/22 04:03:56;;;;;;;18.75;12.53;;;;;;;1.60;71.46;100949.86;1773112;79;20938;-74
2022/10/22 04:06:22;;;;;;;17.35;11.08;;;;;;;1.59;71.48;100939.05;1786125;79;21439;-74
2022/10/22 04:08:50;;;;;;;15.90;10.55;;;;;;;1.57;71.60;100934.34;1774333;79;20968;-74
2022/10/22 04:11:17;;;;;;;16.17;10.63;;;;;;;1.59;71.76;100935.59;1792706;79;20937;-74
2022/10/22 04:13:45;;;;;;;15.58;9.15;;;;;;;1.62;71.92;100930.28;1790236;79;20965;-74
2022/10/22 04:16:18;;;;;;;14.47;8.85;;;;;;;1.68;72.10;100932.69;1788644;79;20973;-73
2022/10/22 04:18:46;;;;;;;13.55;8.40;;;;;;;1.75;72.24;100930.28;1781519;79;21052;-74
2022/10/22 04:21:14;;;;;;;13.85;8.00;;;;;;;1.85;72.45;100921.70;1784217;78;21056;-73
2022/10/22 04:23:47;;;;;;;11.80;6.75;;;;;;;1.95;72.62;100919.17;1782936;79;20972;-74
2022/10/22 04:26:15;;;;;;;12.75;8.00;;;;;;;2.07;72.73;100915.27;1744207;79;21840;-74
2022/10/22 04:28:41;;;;;;;15.72;8.00;;;;;;;2.19;72.86;100913.52;1791849;79;21071;-75
2022/10/22 04:31:11;;;;;;;11.18;7.55;;;;;;;2.29;72.87;100917.49;1793307;79;21530;-74
2022/10/22 04:33:37;;;;;;;11.50;7.67;;;;;;;2.39;72.92;100915.40;1794145;79;21036;-74
2022/10/22 04:36:11;;;;;;;13.05;7.40;;;;;;;2.48;72.92;100915.91;1780035;79;21031;-74
2022/10/22 04:38:40;;;;;;;13.05;7.70;;;;;;;2.58;72.89;100911.20;1788817;79;21931;-73
2022/10/22 04:41:13;;;;;;;13.25;8.03;;;;;;;2.66;72.86;100905.24;1787774;79;20942;-74
2022/10/22 04:43:40;;;;;;;13.58;7.83;;;;;;;2.74;72.80;100911.47;1721961;82;21076;-73
2022/10/22 04:46:08;;;;;;;13.00;7.72;;;;;;;2.78;72.75;100907.38;1719273;82;21065;-73
2022/10/22 04:48:36;;;;;;;11.53;7.05;;;;;;;2.83;72.71;100909.81;1690862;83;21012;-74
2022/10/22 04:51:04;;;;;;;9.25;6.53;;;;;;;2.88;72.63;100915.69;1693315;83;21942;-74
2022/10/22 04:53:30;;;;;;;13.43;7.25;;;;;;;2.93;72.58;100912.92;1742097;81;20945;-73
2022/10/22 04:56:19;;;;;;;12.80;7.45;;;;;;;2.96;72.49;100911.48;1765937;81;21443;-74
2022/10/22 04:58:47;;;;;;;13.50;7.53;;;;;;;2.98;72.40;100915.72;1744588;79;20981;-73
2022/10/22 05:01:21;;;;;;;12.13;7.90;;;;;;;3.01;72.29;100927.82;1773309;79;21009;-73
2022/10/22 05:03:48;;;;;;;11.90;7.50;;;;;;;3.03;72.20;100928.61;1779951;79;22551;-73
2022/10/22 05:06:16;;;;;;;10.70;7.12;;;;;;;3.03;72.15;100928.61;1779809;79;20999;-73
2022/10/22 05:08:44;;;;;;;12.75;7.70;;;;;;;3.03;72.06;100924.69;1793893;79;20942;-74
2022/10/22 05:11:17;;;;;;;10.72;7.25;;;;;;;3.03;71.97;100926.84;1797378;79;20989;-73
2022/10/22 05:13:44;;;;;;;11.35;7.70;;;;;;;3.05;71.93;100926.78;1790218;79;21000;-74
2022/10/22 05:16:12;;;;;;;12.93;7.60;;;;;;;3.07;71.95;100915.81;1756736;79;21781;-74
2022/10/22 05:18:41;;;;;;;14.10;8.03;;;;;;;3.08;71.98;100913.14;1741431;80;20971;-74
2022/10/22 05:21:11;;;;;;;17.12;7.50;;;;;;;3.12;71.98;100915.20;1750406;80;21056;-73
2022/10/22 05:23:38;;;;;;;13.20;7.40;;;;;;;3.15;71.95;100908.53;1758202;81;21040;-73
2022/10/22 05:26:06;;;;;;;12.28;7.58;;;;;;;3.21;71.97;100914.83;1726159;81;21023;-73
2022/10/22 05:28:33;;;;;;;10.72;7.00;;;;;;;3.24;71.95;100912.08;1726953;81;22412;-73
2022/10/22 05:31:01;;;;;;;12.50;7.67;;;;;;;3.31;71.93;100915.30;1738788;80;21107;-73
2022/10/22 05:33:28;;;;;;;13.35;7.42;;;;;;;3.35;71.96;100916.86;1761844;79;20978;-73
2022/10/22 05:35:55;;;;;;;12.43;6.65;;;;;;;3.41;71.96;100921.39;1740947;81;20977;-74
2022/10/22 05:38:22;;;;;;;11.20;7.17;;;;;;;3.47;71.98;100925.95;1750551;80;21155;-74
2022/10/22 05:40:59;;;;;;;12.55;7.40;;;;;;;3.53;71.99;100921.79;1765133;80;21935;-73
2022/10/22 05:43:27;;;;;;;10.60;7.12;;;;;;;3.59;71.99;100922.39;1705190;82;20967;-74
2022/10/22 05:45:53;;;;;;;12.30;7.22;;;;;;;3.64;71.95;100926.95;1741620;81;20989;-73
2022/10/22 05:48:20;;;;;;;12.47;7.20;;;;;;;3.70;71.90;100928.47;1765702;81;20982;-74
2022/10/22 05:50:49;;;;;;;9.60;6.62;;;;;;;3.74;71.86;100930.03;1721446;82;20963;-74
2022/10/22 05:53:17;;;;;;;10.28;7.40;;;;;;;3.77;71.81;100923.84;1736152;80;22244;-74
2022/10/22 05:55:43;;;;;;;10.35;6.95;;;;;;;3.81;71.80;100927.55;1727451;81;21073;-74
2022/10/22 05:58:11;;;;;;;15.03;7.65;;;;;;;3.87;71.76;100924.69;1758453;80;21029;-74
2022/10/22 06:00:38;;;;;;;9.88;6.97;;;;;;;3.91;71.76;100922.33;1726239;80;21418;-74
2022/10/22 06:03:06;;;;;;;12.13;6.97;;;;;;;3.97;71.75;100922.53;1746055;79;21690;-73
2022/10/22 06:05:36;;;;;;;10.55;6.75;;;;;;;4.03;71.76;100927.02;1769953;79;21848;-75
2022/10/22 06:08:03;;;;;;;11.88;7.30;;;;;;;4.13;71.79;100923.54;1746191;80;21061;-74
2022/10/22 06:10:30;;;;;;;9.73;7.08;;;;;;;4.25;71.83;100926.09;1724350;82;20936;-74
2022/10/22 06:12:56;;;;;;;12.75;8.35;;;;;;;4.38;71.84;100919.39;1727882;81;20976;-74
2022/10/22 06:15:24;;;;;;;12.10;8.90;;;;;;;4.53;71.78;100910.83;1758717;80;21030;-74
2022/10/22 06:17:52;;;;;;;12.50;8.33;;;;;;;4.69;71.81;100901.82;1728047;82;21015;-73
2022/10/22 06:20:20;;;;;;;12.50;9.05;;;;;;;4.88;71.87;100896.11;1725213;82;21012;-74
2022/10/22 06:22:47;;;;;;;18.20;9.20;;;;;;;5.07;71.86;100897.39;1766692;79;21047;-74
2022/10/22 06:25:13;;;;;;;15.70;9.43;;;;;;;5.27;71.80;100896.88;1723537;81;21034;-74
2022/10/22 06:27:40;;;;;;;10.28;7.90;;;;;;;5.44;71.69;100891.20;1726381;82;21003;-75
2022/10/22 06:30:08;;;;;;;11.55;7.97;;;;;;;5.66;71.76;100894.05;1765922;81;21899;-73
2022/10/22 06:32:35;;;;;;;12.40;7.50;;;;;;;5.89;71.59;100898.13;1735120;80;20916;-73
2022/10/22 06:35:02;;;;;;;12.65;8.05;;;;;;;6.10;71.26;100891.80;1722877;80;21010;-73
2022/10/22 06:37:29;;;;;;;13.30;8.23;;;;;;;6.29;71.11;100889.90;1714506;82;20983;-73
2022/10/22 06:39:56;;;;;;;12.05;7.47;;;;;;;6.50;70.92;100882.64;1727100;82;21006;-73
2022/10/22 06:42:23;;;;;;;15.75;8.70;;;;;;;6.66;70.42;100884.41;1714439;81;21618;-74
2022/10/22 06:44:49;;;;;;;12.65;7.53;;;;;;;6.77;70.13;100880.28;1709435;82;21077;-74
2022/10/22 06:47:16;;;;;;;11.25;6.87;;;;;;;6.87;69.83;100882.78;1735545;82;21551;-74
2022/10/22 06:49:44;;;;;;;8.73;6.33;;;;;;;6.93;69.34;100872.84;1787718;79;21033;-75
2022/10/22 06:52:11;;;;;;;8.70;6.47;;;;;;;6.97;69.02;100873.08;1779118;79;21098;-73
2022/10/22 06:54:38;;;;;;;11.48;6.42;;;;;;;6.99;68.99;100874.67;1794046;79;21981;-74
2022/10/22 06:57:05;;;;;;;8.90;6.75;;;;;;;7.02;68.90;100865.77;1797130;79;21012;-74
2022/10/22 06:59:31;;;;;;;11.03;6.42;;;;;;;7.03;68.94;100863.52;1718496;81;21098;-74
2022/10/22 07:01:59;;;;;;;8.28;6.33;;;;;;;7.03;68.93;100869.61;1691248;82;20970;-74
2022/10/22 07:04:26;;;;;;;8.75;6.05;;;;;;;7.04;68.89;100856.86;1675550;84;21048;-74
2022/10/22 07:06:55;;;;;;;9.43;6.28;;;;;;;7.05;68.86;100866.92;1692790;83;22529;-74
2022/10/22 07:09:23;;;;;;;9.18;6.60;;;;;;;7.04;68.85;100863.89;1699913;83;21123;-75
2022/10/22 07:11:50;;;;;;;9.55;6.47;;;;;;;7.04;68.86;100862.58;1688678;83;21088;-74
2022/10/22 07:14:16;;;;;;;9.33;6.45;;;;;;;7.07;69.00;100865.05;1712659;82;21068;-75
2022/10/22 07:16:45;;;;;;;10.15;6.37;;;;;;;7.11;69.12;100863.92;1765336;79;21029;-74
2022/10/22 07:19:11;;;;;;;8.15;5.90;;;;;;;7.16;69.30;100869.31;1739514;81;21839;-75
2022/10/22 07:21:39;;;;;;;10.23;6.85;;;;;;;7.23;69.41;100861.91;1724405;82;20967;-73
2022/10/22 07:24:07;;;;;;;8.30;5.80;;;;;;;7.31;69.44;100858.37;1726235;81;20981;-75
2022/10/22 07:26:35;;;;;;;10.25;6.15;;;;;;;7.40;69.48;100857.84;1709691;82;21019;-76
2022/10/22 07:29:02;;;;;;;8.18;5.92;;;;;;;7.50;69.46;100850.72;1696139;83;21033;-73
2022/10/22 07:31:29;;;;;;;8.38;5.78;;;;;;;7.59;69.34;100855.44;1728085;79;21835;-75
2022/10/22 07:33:56;;;;;;;9.88;5.85;;;;;;;7.67;69.23;100851.42;1730294;81;21117;-75
2022/10/22 07:36:23;;;;;;;9.70;5.47;;;;;;;7.79;69.25;100856.41;1742421;82;21060;-73
2022/10/22 07:38:56;;;;;;;8.85;5.70;;;;;;;7.89;69.29;100853.59;1725473;81;21020;-75
2022/10/22 07:41:22;;;;;;;8.15;5.15;;;;;;;8.04;69.14;100850.52;1710877;82;21048;-75
2022/10/22 07:43:49;;;;;;;6.90;4.50;;;;;;;8.20;69.15;100843.38;1724384;81;21916;-75
2022/10/22 07:46:17;;;;;;;6.97;3.98;;;;;;;8.41;68.95;100844.33;1724980;81;21343;-73
2022/10/22 07:48:43;;;;;;;5.90;3.90;;;;;;;8.61;68.73;100841.28;1712751;82;21068;-73
2022/10/22 07:51:10;;;;;;;5.28;3.90;;;;;;;8.81;68.31;100837.36;1735359;82;20953;-75
2022/10/22 07:53:36;;;;;;;5.33;3.50;;;;;;;8.97;67.10;100834.55;1707200;82;20961;-75
2022/10/22 07:56:05;;;;;;;4.92;3.52;;;;;;;9.10;66.84;100831.51;1720572;82;21063;-75
2022/10/22 07:58:32;;;;;;;4.12;3.42;;;;;;;9.26;66.53;100830.00;1719731;82;21163;-74
2022/10/22 08:01:00;;;;;;;5.33;3.05;;;;;;;9.41;66.33;100836.90;1735260;82;21005;-74
2022/10/22 08:03:28;;;;;;;7.03;3.37;;;;;;;9.54;65.80;100825.88;1725494;82;20981;-74
2022/10/22 08:05:55;;;;;;;5.65;3.25;;;;;;;9.69;65.12;100822.69;1726426;82;20975;-75
2022/10/22 08:08:21;;;;;;;4.80;2.90;;;;;;;9.79;64.56;100822.42;1687327;83;21930;-75
2022/10/22 08:10:49;;;;;;;5.75;3.40;;;;;;;9.88;64.53;100828.86;1693567;83;20998;-75
2022/10/22 08:13:17;;;;;;;8.10;3.15;;;;;;;9.98;64.19;100818.03;1709207;82;21427;-73
2022/10/22 08:15:45;;;;;;;4.87;3.02;;;;;;;10.10;64.05;100822.92;1710574;82;21484;-74
2022/10/22 08:18:12;;;;;;;6.37;2.95;;;;;;;10.20;63.17;100810.28;1675371;82;21180;-74
2022/10/22 08:20:39;;;;;;;4.35;3.10;;;;;;;10.30;63.05;100824.55;1694027;82;21904;-74
2022/10/22 08:23:05;;;;;;;4.87;2.77;;;;;;;10.37;62.38;100819.69;1647588;83;21101;-74
2022/10/22 08:25:32;;;;;;;5.08;2.90;;;;;;;10.46;62.42;100813.75;1683257;84;21075;-74
2022/10/22 08:27:59;;;;;;;5.62;2.58;;;;;;;10.58;62.28;100817.30;1667217;84;20938;-73
2022/10/22 08:30:28;;;;;;;5.75;2.90;;;;;;;10.72;62.16;100811.88;1685592;83;21512;-74
2022/10/22 08:32:55;;;;;;;5.20;2.98;;;;;;;10.83;61.71;100807.96;1723428;82;22598;-74
2022/10/22 08:35:21;;;;;;;6.90;3.27;;;;;;;10.95;61.37;100811.97;1797036;79;21024;-74
2022/10/22 08:37:48;;;;;;;4.90;2.85;;;;;;;11.02;60.73;100815.86;1797120;79;20941;-74
2022/10/22 08:40:32;;;;;;;3.67;2.90;;;;;;;11.04;60.74;100816.09;1792106;79;21001;-73
2022/10/22 08:43:05;;;;;;;7.30;3.00;;;;;;;11.08;60.33;100803.48;1775523;79;20925;-74
2022/10/22 08:45:59;;;;;;;7.85;3.08;;;;;;;11.11;60.37;100790.90;1797550;79;21912;-74
2022/10/22 08:48:41;;;;;;;4.60;3.30;;;;;;;11.20;60.20;100794.66;1784318;79;21517;-73
2022/10/22 08:51:12;;;;;;;4.58;2.75;;;;;;;11.28;60.05;100794.89;1790863;79;21051;-74
2022/10/22 08:54:08;;;;;;;8.95;3.00;;;;;;;11.35;59.80;100788.19;1784747;79;21048;-74
2022/10/22 08:56:36;;;;;;;5.00;2.87;;;;;;;11.39;59.61;100780.88;1792453;79;21005;-76
2022/10/22 08:59:22;;;;;;;6.22;3.05;;;;;;;11.45;59.57;100776.43;1797236;79;21812;-73
2022/10/22 09:01:51;;;;;;;4.78;3.08;;;;;;;11.51;59.60;100772.00;1792858;79;21024;-74
2022/10/22 09:04:25;;;;;;;8.68;3.52;;;;;;;11.58;59.36;100772.34;1797475;79;21482;-72
2022/10/22 09:06:53;;;;;;;7.80;3.60;;;;;;;11.58;59.18;100777.64;1764938;79;21036;-75
2022/10/22 09:09:20;;;;;;;5.72;3.08;;;;;;;11.60;59.41;100773.09;1764324;80;21021;-72
2022/10/22 09:11:49;;;;;;;5.97;3.30;;;;;;;11.62;59.09;100773.33;1768458;79;21909;-73
2022/10/22 09:14:21;;;;;;;4.10;3.20;;;;;;;11.62;59.21;100778.63;1744948;80;21003;-73
2022/10/22 09:17:12;;;;;;;6.12;3.35;;;;;;;11.61;59.15;100761.55;1726124;82;20967;-72
2022/10/22 09:19:57;;;;;;;6.10;2.92;;;;;;;11.62;59.35;100760.59;1777846;79;21137;-72
2022/10/22 09:22:59;;;;;;;6.33;3.20;;;;;;;11.70;59.58;100757.71;1776802;79;20972;-74
2022/10/22 09:25:28;;;;;;;5.05;3.12;;;;;;;11.75;59.46;100761.30;1736445;80;22062;-71
2022/10/22 09:27:59;;;;;;;4.72;3.10;;;;;;;11.76;59.17;100764.31;1743012;80;21515;-75
2022/10/22 09:30:30;;;;;;;5.20;3.10;;;;;;;11.77;59.33;100760.70;1774287;79;21221;-73
2022/10/22 09:33:13;;;;;;;4.12;2.87;;;;;;;11.80;59.36;100758.34;1725942;82;20963;-72
2022/10/22 09:35:51;;;;;;;5.78;3.25;;;;;;;11.84;59.80;100763.27;1765905;79;21048;-73
2022/10/22 09:38:20;;;;;;;5.03;3.05;;;;;;;11.89;59.53;100755.82;1778179;79;22347;-72
2022/10/22 09:40:50;;;;;;;5.97;3.30;;;;;;;11.95;59.76;100761.94;1796952;79;21113;-73
2022/10/22 09:43:17;;;;;;;5.55;2.95;;;;;;;12.01;59.79;100754.84;1797422;79;21090;-72
2022/10/22 09:45:44;;;;;;;5.05;3.22;;;;;;;12.09;59.60;100750.75;1797140;79;21017;-72
2022/10/22 09:48:16;;;;;;;4.10;2.92;;;;;;;12.12;59.52;100750.02;1780792;79;20941;-72
2022/10/22 09:50:45;;;;;;;4.05;2.75;;;;;;;12.14;59.31;100741.94;1795320;79;21782;-72
2022/10/22 09:53:32;;;;;;;5.42;2.85;;;;;;;12.17;59.49;100743.05;1785161;79;20934;-71
2022/10/22 09:56:00;;;;;;;7.10;3.02;;;;;;;12.20;59.19;100737.48;1753234;79;20961;-72
2022/10/22 09:58:27;;;;;;;3.85;2.80;;;;;;;12.22;59.46;100733.74;1779850;79;20949;-72
2022/10/22 10:00:59;;;;;;;5.17;2.85;;;;;;;12.29;59.36;100739.40;1784169;79;21151;-71
2022/10/22 10:03:28;;;;;;;7.67;3.40;;;;;;;12.33;59.18;100732.39;1750391;79;22235;-72
2022/10/22 10:05:59;;;;;;;4.55;3.10;;;;;;;12.39;59.38;100727.58;1770648;79;21028;-73
2022/10/22 10:08:26;;;;;;;4.78;2.60;;;;;;;12.47;59.24;100731.29;1771608;79;20950;-74
2022/10/22 10:11:00;;;;;;;4.83;2.50;;;;;;;12.52;58.92;100726.44;1794165;79;21013;-72
2022/10/22 10:14:07;;;;;;;4.67;3.08;;;;;;;12.55;58.69;100723.55;1755128;79;21087;-71
2022/10/22 10:16:58;;;;;;;4.53;2.65;;;;;;;12.56;58.68;100718.61;1765787;79;22471;-72
2022/10/22 10:19:53;;;;;;;3.27;2.40;;;;;;;12.58;58.58;100707.40;1797302;79;21049;-72
2022/10/22 10:22:45;;;;;;;4.92;3.47;;;;;;;12.63;58.74;100703.52;1756025;79;21012;-71
2022/10/22 10:25:37;;;;;;;4.78;2.58;;;;;;;12.67;58.74;100707.13;1744894;81;20994;-72
2022/10/22 10:28:18;;;;;;;5.95;2.90;;;;;;;12.70;58.39;100708.19;1721193;80;21061;-69
2022/10/22 10:31:06;;;;;;;4.55;2.45;;;;;;;12.72;58.73;100701.42;1750960;81;21954;-72
2022/10/22 10:33:52;;;;;;;4.08;2.37;;;;;;;12.76;58.71;100698.41;1718454;82;21145;-69
2022/10/22 10:36:45;;;;;;;6.72;2.42;;;;;;;12.79;58.67;100696.82;1721183;82;21093;-68
2022/10/22 10:39:33;;;;;;;5.17;3.20;;;;;;;12.81;58.76;100689.57;1740621;81;21045;-69
2022/10/22 10:42:14;;;;;;;6.47;2.70;;;;;;;12.86;58.83;100688.72;1746126;81;21091;-68
2022/10/22 10:44:54;;;;;;;4.35;2.37;;;;;;;12.89;58.81;100677.84;1751076;81;21854;-69
2022/10/22 10:47:54;;;;;;;3.77;2.70;;;;;;;12.92;58.66;100678.55;1759155;81;20946;-69
2022/10/22 10:50:42;;;;;;;5.97;2.47;;;;;;;12.91;58.78;100667.11;1752852;81;20959;-69
2022/10/22 10:53:37;;;;;;;6.75;2.40;;;;;;;12.92;58.76;100657.34;1744077;81;20984;-69
2022/10/22 10:56:41;;;;;;;6.40;2.70;;;;;;;12.88;58.57;100654.13;1742414;81;21103;-69
2022/10/22 10:59:19;;;;;;;6.53;2.67;;;;;;;12.85;58.74;100645.11;1716363;80;21856;-69
2022/10/22 11:02:20;;;;;;;5.30;2.90;;;;;;;12.82;58.89;100643.53;1753207;81;21116;-68
2022/10/22 11:05:12;;;;;;;4.80;2.67;;;;;;;12.82;58.94;100640.05;1777557;79;20933;-69
2022/10/22 11:08:02;;;;;;;4.72;2.90;;;;;;;12.81;58.92;100627.28;1785723;79;20983;-69
2022/10/22 11:10:35;;;;;;;5.60;2.47;;;;;;;12.84;58.86;100618.25;1796049;79;20932;-68
2022/10/22 11:13:29;;;;;;;4.30;2.37;;;;;;;12.86;58.72;100624.25;1787604;79;21842;-69
2022/10/22 11:16:04;;;;;;;5.97;2.08;;;;;;;12.88;58.70;100610.37;1785235;79;20930;-68
2022/10/22 11:18:40;;;;;;;3.75;2.02;;;;;;;12.90;58.45;100611.08;1797295;79;21041;-69
2022/10/22 11:21:23;;;;;;;3.90;2.25;;;;;;;12.92;58.33;100617.08;1784127;79;21547;-69
2022/10/22 11:24:33;;;;;;;5.30;1.98;;;;;;;12.92;58.30;100615.77;1793737;79;21210;-70
2022/10/22 11:27:30;;;;;;;5.37;2.30;;;;;;;12.95;58.22;100610.70;1778357;79;21957;-69
2022/10/22 11:30:09;;;;;;;7.03;2.22;;;;;;;12.97;58.09;100604.30;1796341;79;20986;-70
2022/10/22 11:32:36;;;;;;;5.28;2.10;;;;;;;13.00;57.89;100605.34;1797159;79;20953;-70
2022/10/22 11:35:05;;;;;;;4.58;2.20;;;;;;;13.01;58.06;100608.34;1794225;79;21004;-70
2022/10/22 11:37:37;;;;;;;4.67;2.40;;;;;;;13.02;57.62;100598.09;1792280;79;21147;-70
2022/10/22 11:40:23;;;;;;;3.55;2.30;;;;;;;13.05;57.52;100599.66;1756264;79;21829;-70
2022/10/22 11:43:00;;;;;;;5.10;2.40;;;;;;;13.07;57.31;100595.06;1796130;79;21052;-69
2022/10/22 11:45:30;;;;;;;4.53;2.30;;;;;;;13.08;57.09;100588.78;1796804;79;20945;-71
2022/10/22 11:48:17;;;;;;;5.50;2.27;;;;;;;13.09;57.12;100582.50;1765320;79;20958;-73